sensor_id;sensor_type;location;lat;lon;timestamp;P1;durP1;ratioP1;P2;durP2;ratioP2
38238;SDS011;24035;48.900;9.188;2023-03-05T00:02:08;19.73;;;6.38;;
38238;SDS011;24035;48.900;9.188;2023-03-05T00:04:34;18.92;;;6.45;;
38238;SDS011;24035;48.900;9.188;2023-03-05T00:06:59;18.65;;;6.90;;
38238;SDS011;24035;48.900;9.188;2023-03-05T00:09:25;18.80;;;6.65;;
38238;SDS011;24035;48.900;9.188;2023-03-05T00:11:51;15.63;;;6.60;;
38238;SDS011;24035;48.900;9.188;2023-03-05T00:14:16;16.45;;;6.55;;
38238;SDS011;24035;48.900;9.188;2023-03-05T00:16:42;20.58;;;7.80;;
38238;SDS011;24035;48.900;9.188;2023-03-05T00:19:08;16.00;;;6.38;;
38238;SDS011;24035;48.900;9.188;2023-03-05T00:21:38;16.23;;;6.32;;
38238;SDS011;24035;48.900;9.188;2023-03-05T00:24:06;17.77;;;6.20;;
38238;SDS011;24035;48.900;9.188;2023-03-05T00:26:36;16.83;;;6.90;;
38238;SDS011;24035;48.900;9.188;2023-03-05T00:29:03;17.92;;;7.13;;
38238;SDS011;24035;48.900;9.188;2023-03-05T00:31:29;15.82;;;6.00;;
38238;SDS011;24035;48.900;9.188;2023-03-05T00:34:00;15.85;;;6.35;;
38238;SDS011;24035;48.900;9.188;2023-03-05T00:36:27;23.95;;;7.38;;
38238;SDS011;24035;48.900;9.188;2023-03-05T00:38:54;13.93;;;5.97;;
38238;SDS011;24035;48.900;9.188;2023-03-05T00:41:20;23.83;;;7.60;;
38238;SDS011;24035;48.900;9.188;2023-03-05T00:43:46;17.70;;;6.18;;
38238;SDS011;24035;48.900;9.188;2023-03-05T00:46:11;20.08;;;6.90;;
38238;SDS011;24035;48.900;9.188;2023-03-05T00:48:40;19.55;;;6.70;;
38238;SDS011;24035;48.900;9.188;2023-03-05T00:51:06;18.30;;;6.28;;
38238;SDS011;24035;48.900;9.188;2023-03-05T00:53:33;15.40;;;6.10;;
38238;SDS011;24035;48.900;9.188;2023-03-05T00:55:59;15.38;;;6.22;;
38238;SDS011;24035;48.900;9.188;2023-03-05T00:58:25;19.13;;;6.78;;
38238;SDS011;24035;48.900;9.188;2023-03-05T01:00:50;16.20;;;6.90;;
38238;SDS011;24035;48.900;9.188;2023-03-05T01:03:16;18.92;;;6.78;;
38238;SDS011;24035;48.900;9.188;2023-03-05T01:05:42;17.08;;;6.53;;
38238;SDS011;24035;48.900;9.188;2023-03-05T01:08:08;22.00;;;8.00;;
38238;SDS011;24035;48.900;9.188;2023-03-05T01:10:34;16.33;;;6.72;;
38238;SDS011;24035;48.900;9.188;2023-03-05T01:12:59;15.88;;;6.47;;
38238;SDS011;24035;48.900;9.188;2023-03-05T01:15:25;18.92;;;6.68;;
38238;SDS011;24035;48.900;9.188;2023-03-05T01:17:51;20.55;;;7.22;;
38238;SDS011;24035;48.900;9.188;2023-03-05T01:20:18;19.92;;;6.25;;
38238;SDS011;24035;48.900;9.188;2023-03-05T01:22:45;18.33;;;6.32;;
38238;SDS011;24035;48.900;9.188;2023-03-05T01:25:11;19.13;;;6.05;;
38238;SDS011;24035;48.900;9.188;2023-03-05T01:27:39;16.67;;;6.18;;
38238;SDS011;24035;48.900;9.188;2023-03-05T01:30:05;19.98;;;6.82;;
38238;SDS011;24035;48.900;9.188;2023-03-05T01:32:33;15.85;;;6.32;;
38238;SDS011;24035;48.900;9.188;2023-03-05T01:35:00;19.20;;;7.18;;
38238;SDS011;24035;48.900;9.188;2023-03-05T01:37:26;17.30;;;6.10;;
38238;SDS011;24035;48.900;9.188;2023-03-05T01:39:52;21.10;;;6.70;;
38238;SDS011;24035;48.900;9.188;2023-03-05T01:42:17;15.88;;;6.40;;
38238;SDS011;24035;48.900;9.188;2023-03-05T01:44:58;17.20;;;5.50;;
38238;SDS011;24035;48.900;9.188;2023-03-05T01:47:42;15.65;;;6.32;;
38238;SDS011;24035;48.900;9.188;2023-03-05T01:50:10;18.30;;;6.35;;
38238;SDS011;24035;48.900;9.188;2023-03-05T01:52:41;16.83;;;5.95;;
38238;SDS011;24035;48.900;9.188;2023-03-05T01:55:11;16.02;;;5.45;;
38238;SDS011;24035;48.900;9.188;2023-03-05T01:57:44;19.48;;;6.68;;
38238;SDS011;24035;48.900;9.188;2023-03-05T02:00:28;20.05;;;5.28;;
38238;SDS011;24035;48.900;9.188;2023-03-05T02:02:59;16.88;;;5.53;;
38238;SDS011;24035;48.900;9.188;2023-03-05T02:05:32;16.02;;;5.82;;
38238;SDS011;24035;48.900;9.188;2023-03-05T02:08:00;21.45;;;6.20;;
38238;SDS011;24035;48.900;9.188;2023-03-05T02:10:39;16.63;;;6.25;;
38238;SDS011;24035;48.900;9.188;2023-03-05T02:13:12;17.15;;;5.75;;
38238;SDS011;24035;48.900;9.188;2023-03-05T02:15:41;17.40;;;5.78;;
38238;SDS011;24035;48.900;9.188;2023-03-05T02:18:08;13.50;;;6.43;;
38238;SDS011;24035;48.900;9.188;2023-03-05T02:23:14;16.80;;;6.22;;
38238;SDS011;24035;48.900;9.188;2023-03-05T02:25:41;18.20;;;6.40;;
38238;SDS011;24035;48.900;9.188;2023-03-05T02:28:15;22.08;;;6.30;;
38238;SDS011;24035;48.900;9.188;2023-03-05T02:30:52;16.20;;;5.25;;
38238;SDS011;24035;48.900;9.188;2023-03-05T02:33:17;15.30;;;5.70;;
38238;SDS011;24035;48.900;9.188;2023-03-05T02:35:44;19.40;;;5.80;;
38238;SDS011;24035;48.900;9.188;2023-03-05T02:38:14;14.30;;;5.50;;
38238;SDS011;24035;48.900;9.188;2023-03-05T02:40:41;17.15;;;5.40;;
38238;SDS011;24035;48.900;9.188;2023-03-05T02:43:07;15.30;;;5.15;;
38238;SDS011;24035;48.900;9.188;2023-03-05T02:45:33;16.48;;;6.22;;
38238;SDS011;24035;48.900;9.188;2023-03-05T02:47:59;17.05;;;5.93;;
38238;SDS011;24035;48.900;9.188;2023-03-05T02:50:25;16.98;;;5.53;;
38238;SDS011;24035;48.900;9.188;2023-03-05T02:52:52;17.20;;;5.93;;
38238;SDS011;24035;48.900;9.188;2023-03-05T02:55:18;17.85;;;5.38;;
38238;SDS011;24035;48.900;9.188;2023-03-05T02:57:43;14.57;;;5.07;;
38238;SDS011;24035;48.900;9.188;2023-03-05T03:00:09;13.95;;;5.47;;
38238;SDS011;24035;48.900;9.188;2023-03-05T03:02:36;12.90;;;5.00;;
38238;SDS011;24035;48.900;9.188;2023-03-05T03:05:01;17.85;;;5.45;;
38238;SDS011;24035;48.900;9.188;2023-03-05T03:07:27;14.35;;;5.50;;
38238;SDS011;24035;48.900;9.188;2023-03-05T03:09:53;16.92;;;5.30;;
38238;SDS011;24035;48.900;9.188;2023-03-05T03:12:19;17.20;;;5.25;;
38238;SDS011;24035;48.900;9.188;2023-03-05T03:14:45;15.10;;;5.97;;
38238;SDS011;24035;48.900;9.188;2023-03-05T03:17:11;16.08;;;5.90;;
38238;SDS011;24035;48.900;9.188;2023-03-05T03:19:39;13.65;;;4.78;;
38238;SDS011;24035;48.900;9.188;2023-03-05T03:22:06;15.75;;;4.45;;
38238;SDS011;24035;48.900;9.188;2023-03-05T03:24:32;15.98;;;5.45;;
38238;SDS011;24035;48.900;9.188;2023-03-05T03:27:00;14.05;;;4.90;;
38238;SDS011;24035;48.900;9.188;2023-03-05T03:29:26;13.82;;;5.53;;
38238;SDS011;24035;48.900;9.188;2023-03-05T03:31:51;17.58;;;4.47;;
38238;SDS011;24035;48.900;9.188;2023-03-05T03:34:18;13.07;;;5.45;;
38238;SDS011;24035;48.900;9.188;2023-03-05T03:36:45;18.02;;;5.15;;
38238;SDS011;24035;48.900;9.188;2023-03-05T03:39:12;17.33;;;5.00;;
38238;SDS011;24035;48.900;9.188;2023-03-05T03:41:42;11.00;;;4.35;;
38238;SDS011;24035;48.900;9.188;2023-03-05T03:44:10;14.70;;;4.95;;
38238;SDS011;24035;48.900;9.188;2023-03-05T03:46:37;15.13;;;4.25;;
38238;SDS011;24035;48.900;9.188;2023-03-05T03:49:04;13.45;;;5.03;;
38238;SDS011;24035;48.900;9.188;2023-03-05T03:51:30;12.68;;;4.40;;
38238;SDS011;24035;48.900;9.188;2023-03-05T03:53:56;15.98;;;4.88;;
38238;SDS011;24035;48.900;9.188;2023-03-05T03:56:22;13.75;;;4.72;;
38238;SDS011;24035;48.900;9.188;2023-03-05T03:58:49;16.48;;;4.90;;
38238;SDS011;24035;48.900;9.188;2023-03-05T04:01:16;13.40;;;4.90;;
38238;SDS011;24035;48.900;9.188;2023-03-05T04:03:42;11.95;;;3.90;;
38238;SDS011;24035;48.900;9.188;2023-03-05T04:06:08;15.13;;;5.03;;
38238;SDS011;24035;48.900;9.188;2023-03-05T04:08:34;16.25;;;4.95;;
38238;SDS011;24035;48.900;9.188;2023-03-05T04:11:00;15.80;;;4.97;;
38238;SDS011;24035;48.900;9.188;2023-03-05T04:13:26;17.05;;;5.30;;
38238;SDS011;24035;48.900;9.188;2023-03-05T04:15:52;15.52;;;4.63;;
38238;SDS011;24035;48.900;9.188;2023-03-05T04:18:18;16.90;;;4.40;;
38238;SDS011;24035;48.900;9.188;2023-03-05T04:20:44;16.00;;;5.43;;
38238;SDS011;24035;48.900;9.188;2023-03-05T04:23:09;13.15;;;4.57;;
38238;SDS011;24035;48.900;9.188;2023-03-05T04:25:35;13.13;;;4.65;;
38238;SDS011;24035;48.900;9.188;2023-03-05T04:28:01;18.65;;;5.40;;
38238;SDS011;24035;48.900;9.188;2023-03-05T04:30:26;16.90;;;5.30;;
38238;SDS011;24035;48.900;9.188;2023-03-05T04:32:52;13.15;;;4.38;;
38238;SDS011;24035;48.900;9.188;2023-03-05T04:35:17;13.27;;;4.22;;
38238;SDS011;24035;48.900;9.188;2023-03-05T04:37:43;15.52;;;5.45;;
38238;SDS011;24035;48.900;9.188;2023-03-05T04:40:09;14.85;;;4.72;;
38238;SDS011;24035;48.900;9.188;2023-03-05T04:42:36;15.88;;;4.35;;
38238;SDS011;24035;48.900;9.188;2023-03-05T04:45:02;16.27;;;4.55;;
38238;SDS011;24035;48.900;9.188;2023-03-05T04:47:28;14.30;;;4.38;;
38238;SDS011;24035;48.900;9.188;2023-03-05T04:49:54;13.90;;;4.47;;
38238;SDS011;24035;48.900;9.188;2023-03-05T04:52:19;13.63;;;4.97;;
38238;SDS011;24035;48.900;9.188;2023-03-05T04:54:45;13.00;;;4.32;;
38238;SDS011;24035;48.900;9.188;2023-03-05T04:57:11;18.25;;;4.72;;
38238;SDS011;24035;48.900;9.188;2023-03-05T04:59:37;15.40;;;4.95;;
38238;SDS011;24035;48.900;9.188;2023-03-05T05:02:03;17.67;;;5.25;;
38238;SDS011;24035;48.900;9.188;2023-03-05T05:04:29;14.85;;;4.38;;
38238;SDS011;24035;48.900;9.188;2023-03-05T05:06:55;15.70;;;4.78;;
38238;SDS011;24035;48.900;9.188;2023-03-05T05:09:21;16.95;;;4.95;;
38238;SDS011;24035;48.900;9.188;2023-03-05T05:11:47;13.05;;;4.30;;
38238;SDS011;24035;48.900;9.188;2023-03-05T05:14:13;16.35;;;4.85;;
38238;SDS011;24035;48.900;9.188;2023-03-05T05:16:38;15.98;;;4.25;;
38238;SDS011;24035;48.900;9.188;2023-03-05T05:19:04;14.30;;;4.70;;
38238;SDS011;24035;48.900;9.188;2023-03-05T05:21:30;12.70;;;4.32;;
38238;SDS011;24035;48.900;9.188;2023-03-05T05:23:56;12.68;;;3.90;;
38238;SDS011;24035;48.900;9.188;2023-03-05T05:26:22;16.60;;;4.40;;
38238;SDS011;24035;48.900;9.188;2023-03-05T05:28:47;14.60;;;4.22;;
38238;SDS011;24035;48.900;9.188;2023-03-05T05:31:13;14.25;;;5.13;;
38238;SDS011;24035;48.900;9.188;2023-03-05T05:33:40;15.45;;;4.85;;
38238;SDS011;24035;48.900;9.188;2023-03-05T05:36:07;13.40;;;4.40;;
38238;SDS011;24035;48.900;9.188;2023-03-05T05:38:35;15.52;;;4.60;;
38238;SDS011;24035;48.900;9.188;2023-03-05T05:41:04;18.48;;;5.30;;
38238;SDS011;24035;48.900;9.188;2023-03-05T05:43:31;16.48;;;5.63;;
38238;SDS011;24035;48.900;9.188;2023-03-05T05:45:58;13.65;;;4.65;;
38238;SDS011;24035;48.900;9.188;2023-03-05T05:48:28;19.45;;;5.13;;
38238;SDS011;24035;48.900;9.188;2023-03-05T05:50:55;16.20;;;4.95;;
38238;SDS011;24035;48.900;9.188;2023-03-05T05:53:21;14.73;;;5.68;;
38238;SDS011;24035;48.900;9.188;2023-03-05T05:55:47;15.38;;;4.43;;
38238;SDS011;24035;48.900;9.188;2023-03-05T05:58:13;13.38;;;4.50;;
38238;SDS011;24035;48.900;9.188;2023-03-05T06:00:38;15.48;;;5.05;;
38238;SDS011;24035;48.900;9.188;2023-03-05T06:03:04;18.88;;;4.85;;
38238;SDS011;24035;48.900;9.188;2023-03-05T06:05:30;11.00;;;4.57;;
38238;SDS011;24035;48.900;9.188;2023-03-05T06:07:56;10.65;;;4.28;;
38238;SDS011;24035;48.900;9.188;2023-03-05T06:10:21;18.40;;;5.10;;
38238;SDS011;24035;48.900;9.188;2023-03-05T06:12:47;17.52;;;5.38;;
38238;SDS011;24035;48.900;9.188;2023-03-05T06:15:13;15.07;;;5.25;;
38238;SDS011;24035;48.900;9.188;2023-03-05T06:17:38;13.77;;;4.47;;
38238;SDS011;24035;48.900;9.188;2023-03-05T06:20:04;13.85;;;5.03;;
38238;SDS011;24035;48.900;9.188;2023-03-05T06:22:31;16.42;;;4.90;;
38238;SDS011;24035;48.900;9.188;2023-03-05T06:25:00;12.10;;;4.35;;
38238;SDS011;24035;48.900;9.188;2023-03-05T06:27:26;14.63;;;4.03;;
38238;SDS011;24035;48.900;9.188;2023-03-05T06:29:52;18.27;;;5.60;;
38238;SDS011;24035;48.900;9.188;2023-03-05T06:32:20;13.75;;;4.75;;
38238;SDS011;24035;48.900;9.188;2023-03-05T06:34:47;20.42;;;5.65;;
38238;SDS011;24035;48.900;9.188;2023-03-05T06:37:13;16.05;;;4.93;;
38238;SDS011;24035;48.900;9.188;2023-03-05T06:39:38;12.20;;;4.30;;
38238;SDS011;24035;48.900;9.188;2023-03-05T06:42:04;15.57;;;5.30;;
38238;SDS011;24035;48.900;9.188;2023-03-05T06:44:30;17.15;;;4.60;;
38238;SDS011;24035;48.900;9.188;2023-03-05T06:46:55;16.42;;;4.55;;
38238;SDS011;24035;48.900;9.188;2023-03-05T06:49:21;16.77;;;4.80;;
38238;SDS011;24035;48.900;9.188;2023-03-05T06:51:48;18.55;;;6.00;;
38238;SDS011;24035;48.900;9.188;2023-03-05T06:54:15;15.45;;;5.22;;
38238;SDS011;24035;48.900;9.188;2023-03-05T06:56:43;13.07;;;5.15;;
38238;SDS011;24035;48.900;9.188;2023-03-05T06:59:10;12.35;;;5.13;;
38238;SDS011;24035;48.900;9.188;2023-03-05T07:01:37;14.20;;;5.20;;
38238;SDS011;24035;48.900;9.188;2023-03-05T07:04:03;13.35;;;4.10;;
38238;SDS011;24035;48.900;9.188;2023-03-05T07:06:34;15.90;;;4.63;;
38238;SDS011;24035;48.900;9.188;2023-03-05T07:09:01;14.00;;;4.18;;
38238;SDS011;24035;48.900;9.188;2023-03-05T07:11:27;15.25;;;4.57;;
38238;SDS011;24035;48.900;9.188;2023-03-05T07:13:55;18.52;;;4.30;;
38238;SDS011;24035;48.900;9.188;2023-03-05T07:16:25;13.48;;;4.43;;
38238;SDS011;24035;48.900;9.188;2023-03-05T07:18:52;13.93;;;4.85;;
38238;SDS011;24035;48.900;9.188;2023-03-05T07:21:20;12.18;;;4.82;;
38238;SDS011;24035;48.900;9.188;2023-03-05T07:23:47;17.23;;;5.00;;
38238;SDS011;24035;48.900;9.188;2023-03-05T07:26:13;15.77;;;5.10;;
38238;SDS011;24035;48.900;9.188;2023-03-05T07:28:40;13.93;;;5.32;;
38238;SDS011;24035;48.900;9.188;2023-03-05T07:31:07;15.90;;;5.10;;
38238;SDS011;24035;48.900;9.188;2023-03-05T07:33:46;18.25;;;5.85;;
38238;SDS011;24035;48.900;9.188;2023-03-05T07:36:13;22.25;;;5.70;;
38238;SDS011;24035;48.900;9.188;2023-03-05T07:38:39;17.08;;;5.30;;
38238;SDS011;24035;48.900;9.188;2023-03-05T07:41:06;17.75;;;5.35;;
38238;SDS011;24035;48.900;9.188;2023-03-05T07:43:34;15.13;;;5.35;;
38238;SDS011;24035;48.900;9.188;2023-03-05T07:46:03;14.10;;;5.25;;
38238;SDS011;24035;48.900;9.188;2023-03-05T07:48:32;15.05;;;5.05;;
38238;SDS011;24035;48.900;9.188;2023-03-05T07:51:17;17.17;;;5.75;;
38238;SDS011;24035;48.900;9.188;2023-03-05T07:53:44;16.17;;;4.45;;
38238;SDS011;24035;48.900;9.188;2023-03-05T07:56:11;19.48;;;5.63;;
38238;SDS011;24035;48.900;9.188;2023-03-05T07:58:36;16.30;;;4.95;;
38238;SDS011;24035;48.900;9.188;2023-03-05T08:01:02;13.82;;;4.53;;
38238;SDS011;24035;48.900;9.188;2023-03-05T08:03:28;13.45;;;4.90;;
38238;SDS011;24035;48.900;9.188;2023-03-05T08:05:54;15.50;;;4.95;;
38238;SDS011;24035;48.900;9.188;2023-03-05T08:08:19;15.27;;;5.47;;
38238;SDS011;24035;48.900;9.188;2023-03-05T08:10:45;22.40;;;5.15;;
38238;SDS011;24035;48.900;9.188;2023-03-05T08:13:11;13.00;;;4.40;;
38238;SDS011;24035;48.900;9.188;2023-03-05T08:15:37;17.35;;;4.70;;
38238;SDS011;24035;48.900;9.188;2023-03-05T08:18:03;14.07;;;5.47;;
38238;SDS011;24035;48.900;9.188;2023-03-05T08:20:29;16.65;;;5.10;;
38238;SDS011;24035;48.900;9.188;2023-03-05T08:22:54;14.75;;;5.25;;
38238;SDS011;24035;48.900;9.188;2023-03-05T08:25:20;17.05;;;5.18;;
38238;SDS011;24035;48.900;9.188;2023-03-05T08:27:47;17.98;;;5.47;;
38238;SDS011;24035;48.900;9.188;2023-03-05T08:30:15;16.25;;;5.32;;
38238;SDS011;24035;48.900;9.188;2023-03-05T08:32:43;15.85;;;5.78;;
38238;SDS011;24035;48.900;9.188;2023-03-05T08:35:09;15.68;;;5.00;;
38238;SDS011;24035;48.900;9.188;2023-03-05T08:37:35;12.65;;;4.95;;
38238;SDS011;24035;48.900;9.188;2023-03-05T08:40:01;20.13;;;5.22;;
38238;SDS011;24035;48.900;9.188;2023-03-05T08:42:28;15.55;;;5.20;;
38238;SDS011;24035;48.900;9.188;2023-03-05T08:44:54;17.77;;;6.57;;
38238;SDS011;24035;48.900;9.188;2023-03-05T08:47:20;18.88;;;5.45;;
38238;SDS011;24035;48.900;9.188;2023-03-05T08:49:45;16.02;;;5.43;;
38238;SDS011;24035;48.900;9.188;2023-03-05T08:52:11;18.02;;;5.88;;
38238;SDS011;24035;48.900;9.188;2023-03-05T08:54:37;13.57;;;5.05;;
38238;SDS011;24035;48.900;9.188;2023-03-05T08:57:03;12.45;;;4.40;;
38238;SDS011;24035;48.900;9.188;2023-03-05T08:59:28;18.65;;;5.38;;
38238;SDS011;24035;48.900;9.188;2023-03-05T09:01:58;15.88;;;5.60;;
38238;SDS011;24035;48.900;9.188;2023-03-05T09:04:25;16.38;;;5.13;;
38238;SDS011;24035;48.900;9.188;2023-03-05T09:06:50;25.23;;;6.22;;
38238;SDS011;24035;48.900;9.188;2023-03-05T09:09:16;17.52;;;6.90;;
38238;SDS011;24035;48.900;9.188;2023-03-05T09:11:44;15.07;;;4.95;;
38238;SDS011;24035;48.900;9.188;2023-03-05T09:14:10;16.83;;;5.68;;
38238;SDS011;24035;48.900;9.188;2023-03-05T09:16:35;13.10;;;5.10;;
38238;SDS011;24035;48.900;9.188;2023-03-05T09:19:04;19.90;;;6.53;;
38238;SDS011;24035;48.900;9.188;2023-03-05T09:21:30;19.45;;;6.20;;
38238;SDS011;24035;48.900;9.188;2023-03-05T09:23:56;13.30;;;5.63;;
38238;SDS011;24035;48.900;9.188;2023-03-05T09:26:24;16.55;;;5.32;;
38238;SDS011;24035;48.900;9.188;2023-03-05T09:28:50;17.05;;;5.35;;
38238;SDS011;24035;48.900;9.188;2023-03-05T09:31:16;19.92;;;5.50;;
38238;SDS011;24035;48.900;9.188;2023-03-05T09:33:42;15.57;;;5.55;;
38238;SDS011;24035;48.900;9.188;2023-03-05T09:36:19;19.50;;;5.30;;
38238;SDS011;24035;48.900;9.188;2023-03-05T09:38:47;17.25;;;5.85;;
38238;SDS011;24035;48.900;9.188;2023-03-05T09:41:19;14.65;;;5.72;;
38238;SDS011;24035;48.900;9.188;2023-03-05T09:46:51;15.43;;;5.38;;
38238;SDS011;24035;48.900;9.188;2023-03-05T09:49:29;20.55;;;5.60;;
38238;SDS011;24035;48.900;9.188;2023-03-05T09:52:22;15.43;;;5.25;;
38238;SDS011;24035;48.900;9.188;2023-03-05T09:55:03;15.38;;;4.93;;
38238;SDS011;24035;48.900;9.188;2023-03-05T09:57:35;17.70;;;5.43;;
38238;SDS011;24035;48.900;9.188;2023-03-05T10:00:10;15.23;;;5.55;;
38238;SDS011;24035;48.900;9.188;2023-03-05T10:03:01;20.77;;;6.68;;
38238;SDS011;24035;48.900;9.188;2023-03-05T10:08:20;14.57;;;5.32;;
38238;SDS011;24035;48.900;9.188;2023-03-05T10:10:52;16.30;;;5.70;;
38238;SDS011;24035;48.900;9.188;2023-03-05T10:13:23;17.33;;;5.90;;
38238;SDS011;24035;48.900;9.188;2023-03-05T10:16:05;16.67;;;5.87;;
38238;SDS011;24035;48.900;9.188;2023-03-05T10:21:39;15.27;;;5.90;;
38238;SDS011;24035;48.900;9.188;2023-03-05T10:32:36;15.32;;;6.30;;
38238;SDS011;24035;48.900;9.188;2023-03-05T10:37:59;15.15;;;6.38;;
38238;SDS011;24035;48.900;9.188;2023-03-05T10:40:45;19.20;;;6.70;;
38238;SDS011;24035;48.900;9.188;2023-03-05T10:43:15;20.42;;;5.55;;
38238;SDS011;24035;48.900;9.188;2023-03-05T10:45:44;15.32;;;6.18;;
38238;SDS011;24035;48.900;9.188;2023-03-05T10:53:52;15.10;;;5.80;;
38238;SDS011;24035;48.900;9.188;2023-03-05T10:56:25;17.50;;;7.18;;
38238;SDS011;24035;48.900;9.188;2023-03-05T10:58:52;21.40;;;6.88;;
38238;SDS011;24035;48.900;9.188;2023-03-05T11:01:20;19.42;;;6.10;;
38238;SDS011;24035;48.900;9.188;2023-03-05T11:06:13;17.33;;;5.57;;
38238;SDS011;24035;48.900;9.188;2023-03-05T11:08:40;15.95;;;5.57;;
38238;SDS011;24035;48.900;9.188;2023-03-05T11:11:16;12.65;;;5.65;;
38238;SDS011;24035;48.900;9.188;2023-03-05T11:13:52;16.15;;;6.25;;
38238;SDS011;24035;48.900;9.188;2023-03-05T11:16:20;15.32;;;6.57;;
38238;SDS011;24035;48.900;9.188;2023-03-05T11:19:16;13.55;;;5.88;;
38238;SDS011;24035;48.900;9.188;2023-03-05T11:21:39;14.68;;;5.82;;
38238;SDS011;24035;48.900;9.188;2023-03-05T11:24:13;14.63;;;6.43;;
38238;SDS011;24035;48.900;9.188;2023-03-05T11:26:47;16.90;;;5.78;;
38238;SDS011;24035;48.900;9.188;2023-03-05T11:29:22;13.20;;;5.38;;
38238;SDS011;24035;48.900;9.188;2023-03-05T11:31:50;11.98;;;4.80;;
38238;SDS011;24035;48.900;9.188;2023-03-05T11:36:42;12.23;;;5.55;;
38238;SDS011;24035;48.900;9.188;2023-03-05T11:39:15;16.80;;;5.53;;
38238;SDS011;24035;48.900;9.188;2023-03-05T11:41:43;14.35;;;6.05;;
38238;SDS011;24035;48.900;9.188;2023-03-05T11:49:49;10.20;;;5.03;;
38238;SDS011;24035;48.900;9.188;2023-03-05T11:52:23;16.85;;;5.90;;
38238;SDS011;24035;48.900;9.188;2023-03-05T11:55:02;15.98;;;5.75;;
38238;SDS011;24035;48.900;9.188;2023-03-05T11:57:49;14.30;;;5.53;;
38238;SDS011;24035;48.900;9.188;2023-03-05T12:00:36;14.15;;;5.97;;
38238;SDS011;24035;48.900;9.188;2023-03-05T12:03:08;11.93;;;5.40;;
38238;SDS011;24035;48.900;9.188;2023-03-05T12:05:38;13.60;;;5.43;;
38238;SDS011;24035;48.900;9.188;2023-03-05T12:08:09;12.73;;;5.18;;
38238;SDS011;24035;48.900;9.188;2023-03-05T12:10:38;10.98;;;4.90;;
38238;SDS011;24035;48.900;9.188;2023-03-05T12:15:59;14.15;;;5.43;;
38238;SDS011;24035;48.900;9.188;2023-03-05T12:21:30;12.32;;;5.95;;
38238;SDS011;24035;48.900;9.188;2023-03-05T12:24:02;13.55;;;5.32;;
38238;SDS011;24035;48.900;9.188;2023-03-05T12:29:28;16.40;;;5.47;;
38238;SDS011;24035;48.900;9.188;2023-03-05T12:31:58;11.82;;;4.78;;
38238;SDS011;24035;48.900;9.188;2023-03-05T12:42:46;13.30;;;5.63;;
38238;SDS011;24035;48.900;9.188;2023-03-05T12:45:37;13.60;;;5.07;;
38238;SDS011;24035;48.900;9.188;2023-03-05T12:53:15;10.65;;;4.43;;
38238;SDS011;24035;48.900;9.188;2023-03-05T13:01:26;11.32;;;4.78;;
38238;SDS011;24035;48.900;9.188;2023-03-05T13:04:13;14.55;;;4.07;;
38238;SDS011;24035;48.900;9.188;2023-03-05T13:06:44;12.93;;;4.13;;
38238;SDS011;24035;48.900;9.188;2023-03-05T13:09:16;11.10;;;4.30;;
38238;SDS011;24035;48.900;9.188;2023-03-05T13:11:48;12.25;;;4.93;;
38238;SDS011;24035;48.900;9.188;2023-03-05T13:14:24;12.75;;;4.38;;
38238;SDS011;24035;48.900;9.188;2023-03-05T13:19:56;10.27;;;4.70;;
38238;SDS011;24035;48.900;9.188;2023-03-05T13:22:23;12.43;;;4.43;;
38238;SDS011;24035;48.900;9.188;2023-03-05T13:25:11;10.73;;;4.38;;
38238;SDS011;24035;48.900;9.188;2023-03-05T13:27:40;10.68;;;4.28;;
38238;SDS011;24035;48.900;9.188;2023-03-05T13:30:41;11.82;;;3.97;;
38238;SDS011;24035;48.900;9.188;2023-03-05T13:32:59;10.52;;;4.28;;
38238;SDS011;24035;48.900;9.188;2023-03-05T13:35:30;14.32;;;4.40;;
38238;SDS011;24035;48.900;9.188;2023-03-05T13:37:57;15.10;;;5.10;;
38238;SDS011;24035;48.900;9.188;2023-03-05T13:40:25;10.65;;;3.95;;
38238;SDS011;24035;48.900;9.188;2023-03-05T13:42:53;13.07;;;4.15;;
38238;SDS011;24035;48.900;9.188;2023-03-05T13:45:24;12.23;;;3.90;;
38238;SDS011;24035;48.900;9.188;2023-03-05T13:47:59;9.18;;;4.55;;
38238;SDS011;24035;48.900;9.188;2023-03-05T13:50:31;11.57;;;4.22;;
38238;SDS011;24035;48.900;9.188;2023-03-05T13:53:15;12.27;;;4.32;;
38238;SDS011;24035;48.900;9.188;2023-03-05T13:55:53;10.77;;;4.53;;
38238;SDS011;24035;48.900;9.188;2023-03-05T14:04:07;14.60;;;5.53;;
38238;SDS011;24035;48.900;9.188;2023-03-05T14:06:35;11.43;;;4.32;;
38238;SDS011;24035;48.900;9.188;2023-03-05T14:09:27;13.65;;;4.57;;
38238;SDS011;24035;48.900;9.188;2023-03-05T14:11:57;11.32;;;4.53;;
38238;SDS011;24035;48.900;9.188;2023-03-05T14:14:23;10.23;;;4.80;;
38238;SDS011;24035;48.900;9.188;2023-03-05T14:16:51;15.10;;;4.47;;
38238;SDS011;24035;48.900;9.188;2023-03-05T14:21:58;13.40;;;5.10;;
38238;SDS011;24035;48.900;9.188;2023-03-05T14:24:25;15.88;;;5.63;;
38238;SDS011;24035;48.900;9.188;2023-03-05T14:26:56;16.83;;;6.80;;
38238;SDS011;24035;48.900;9.188;2023-03-05T14:29:25;13.82;;;5.00;;
38238;SDS011;24035;48.900;9.188;2023-03-05T14:32:03;10.85;;;4.40;;
38238;SDS011;24035;48.900;9.188;2023-03-05T14:34:36;9.45;;;5.00;;
38238;SDS011;24035;48.900;9.188;2023-03-05T14:37:24;12.23;;;4.53;;
38238;SDS011;24035;48.900;9.188;2023-03-05T14:39:58;15.07;;;5.13;;
38238;SDS011;24035;48.900;9.188;2023-03-05T14:42:30;9.18;;;4.03;;
38238;SDS011;24035;48.900;9.188;2023-03-05T14:45:11;14.82;;;4.32;;
38238;SDS011;24035;48.900;9.188;2023-03-05T14:47:37;11.38;;;4.53;;
38238;SDS011;24035;48.900;9.188;2023-03-05T14:50:03;12.05;;;4.47;;
38238;SDS011;24035;48.900;9.188;2023-03-05T14:52:30;9.48;;;3.80;;
38238;SDS011;24035;48.900;9.188;2023-03-05T14:54:56;9.68;;;4.10;;
38238;SDS011;24035;48.900;9.188;2023-03-05T14:57:23;14.25;;;4.53;;
38238;SDS011;24035;48.900;9.188;2023-03-05T14:59:51;11.10;;;4.07;;
38238;SDS011;24035;48.900;9.188;2023-03-05T15:02:22;9.95;;;4.05;;
38238;SDS011;24035;48.900;9.188;2023-03-05T15:04:52;13.70;;;5.43;;
38238;SDS011;24035;48.900;9.188;2023-03-05T15:07:19;11.43;;;4.00;;
38238;SDS011;24035;48.900;9.188;2023-03-05T15:09:49;12.70;;;4.88;;
38238;SDS011;24035;48.900;9.188;2023-03-05T15:12:15;7.80;;;3.40;;
38238;SDS011;24035;48.900;9.188;2023-03-05T15:14:41;9.65;;;4.07;;
38238;SDS011;24035;48.900;9.188;2023-03-05T15:20:01;10.35;;;3.88;;
38238;SDS011;24035;48.900;9.188;2023-03-05T15:22:32;11.90;;;4.47;;
38238;SDS011;24035;48.900;9.188;2023-03-05T15:24:58;13.30;;;5.15;;
38238;SDS011;24035;48.900;9.188;2023-03-05T15:27:24;9.52;;;3.80;;
38238;SDS011;24035;48.900;9.188;2023-03-05T15:29:49;14.63;;;4.65;;
38238;SDS011;24035;48.900;9.188;2023-03-05T15:32:15;9.63;;;4.22;;
38238;SDS011;24035;48.900;9.188;2023-03-05T15:34:41;9.20;;;4.20;;
38238;SDS011;24035;48.900;9.188;2023-03-05T15:37:07;9.60;;;4.07;;
38238;SDS011;24035;48.900;9.188;2023-03-05T15:39:33;12.05;;;5.47;;
38238;SDS011;24035;48.900;9.188;2023-03-05T15:41:59;11.57;;;5.10;;
38238;SDS011;24035;48.900;9.188;2023-03-05T15:44:25;13.93;;;4.75;;
38238;SDS011;24035;48.900;9.188;2023-03-05T15:46:51;9.68;;;3.90;;
38238;SDS011;24035;48.900;9.188;2023-03-05T15:49:17;13.10;;;4.50;;
38238;SDS011;24035;48.900;9.188;2023-03-05T15:51:43;13.23;;;4.72;;
38238;SDS011;24035;48.900;9.188;2023-03-05T15:54:10;9.75;;;4.15;;
38238;SDS011;24035;48.900;9.188;2023-03-05T15:56:35;12.43;;;4.80;;
38238;SDS011;24035;48.900;9.188;2023-03-05T15:59:02;11.88;;;4.38;;
38238;SDS011;24035;48.900;9.188;2023-03-05T16:01:29;13.13;;;4.53;;
38238;SDS011;24035;48.900;9.188;2023-03-05T16:03:54;12.35;;;4.70;;
38238;SDS011;24035;48.900;9.188;2023-03-05T16:06:20;10.68;;;4.75;;